createdAt,value
2022-08-05T00:01:55.983Z,79.51
2022-08-05T00:04:26.850Z,79.45
2022-08-05T00:06:56.211Z,79.50
2022-08-05T00:09:25.478Z,79.52
2022-08-05T00:11:59.949Z,79.09
2022-08-05T00:14:31.427Z,79.32
2022-08-05T00:16:58.987Z,78.86
2022-08-05T00:19:33.135Z,78.57
2022-08-05T00:22:01.380Z,78.54
2022-08-05T00:24:31.522Z,79.13
2022-08-05T00:27:01.667Z,79.09
2022-08-05T00:29:37.736Z,78.96
2022-08-05T00:32:12.937Z,78.98
2022-08-05T00:34:54.674Z,78.98
2022-08-05T00:37:11.542Z,78.89
2022-08-05T00:39:41.730Z,79.24
2022-08-05T00:42:09.099Z,78.88
2022-08-05T00:44:38.389Z,79.29
2022-08-05T00:47:07.859Z,79.60
2022-08-05T00:49:51.086Z,79.35
2022-08-05T00:52:09.787Z,79.39
2022-08-05T00:54:40.763Z,79.43
2022-08-05T00:57:11.934Z,79.28
2022-08-05T00:59:44.324Z,79.43
2022-08-05T01:02:12.586Z,79.63
2022-08-05T01:04:43.540Z,79.70
2022-08-05T01:07:23.495Z,79.65
2022-08-05T01:09:44.029Z,79.77
2022-08-05T01:12:18.660Z,80.11
2022-08-05T01:14:54.669Z,80.32
2022-08-05T01:17:30.474Z,80.70
2022-08-05T01:20:20.368Z,80.94
2022-08-05T01:23:14.930Z,80.86
2022-08-05T01:25:56.539Z,81.27
2022-08-05T01:28:34.985Z,81.59
2022-08-05T01:31:07.463Z,81.95
2022-08-05T01:33:49.175Z,81.89
2022-08-05T01:36:18.470Z,81.94
2022-08-05T01:38:50.019Z,82.06
2022-08-05T01:41:22.247Z,82.14
2022-08-05T01:43:55.128Z,82.41
2022-08-05T01:46:41.346Z,82.92
2022-08-05T01:48:59.019Z,83.27
2022-08-05T01:51:30.104Z,83.45
2022-08-05T01:54:02.152Z,83.32
2022-08-05T01:58:11.542Z,83.86
2022-08-05T01:59:07.704Z,83.99
2022-08-05T02:01:40.311Z,84.09
2022-08-05T02:04:10.846Z,84.65
2022-08-05T02:06:40.586Z,84.65
2022-08-05T02:09:11.532Z,84.97
2022-08-05T02:11:58.025Z,85.50
2022-08-05T02:14:35.750Z,85.47
2022-08-05T02:17:17.029Z,85.31
2022-08-05T02:19:49.299Z,85.32
2022-08-05T02:22:25.612Z,85.76
2022-08-05T02:25:00.152Z,85.97
2022-08-05T02:27:58.532Z,86.11
2022-08-05T02:30:02.853Z,86.34
2022-08-05T02:32:34.054Z,86.45
2022-08-05T02:35:13.766Z,86.39
2022-08-05T02:37:38.461Z,86.42
2022-08-05T02:40:09.604Z,86.57
2022-08-05T02:42:40.529Z,86.40
2022-08-05T02:45:11.108Z,86.36
2022-08-05T02:48:06.769Z,86.28
2022-08-05T02:50:13.910Z,86.06
2022-08-05T02:52:45.858Z,85.94
2022-08-05T02:55:17.699Z,85.90
2022-08-05T02:58:11.605Z,85.73
2022-08-05T03:00:18.463Z,85.55
2022-08-05T03:02:48.822Z,85.68
2022-08-05T03:05:21.913Z,85.66
2022-08-05T03:08:01.712Z,85.31
2022-08-05T03:10:21.950Z,85.03
2022-08-05T03:12:52.821Z,85.01
2022-08-05T03:15:23.977Z,85.11
2022-08-05T03:17:55.986Z,85.47
2022-08-05T03:20:26.647Z,85.65
2022-08-05T03:22:57.656Z,85.62
2022-08-05T03:25:33.176Z,85.30
2022-08-05T03:28:00.607Z,85.27
2022-08-05T03:30:33.985Z,85.27
2022-08-05T03:33:05.700Z,85.30
2022-08-05T03:35:40.961Z,85.16
2022-08-05T03:38:06.759Z,85.19
2022-08-05T03:40:36.163Z,85.01
2022-08-05T03:43:15.968Z,85.15
2022-08-05T03:45:58.000Z,85.12
2022-08-05T03:48:09.154Z,85.27
2022-08-05T03:50:47.406Z,85.69
2022-08-05T03:55:53.544Z,86.04
2022-08-05T03:56:10.423Z,86.72
2022-08-05T03:58:32.265Z,87.05
2022-08-05T04:01:04.083Z,87.10
2022-08-05T04:03:38.135Z,87.21
2022-08-05T04:06:08.700Z,87.33
2022-08-05T04:08:39.202Z,87.59
2022-08-05T04:11:09.906Z,87.64
2022-08-05T04:13:49.837Z,87.64
2022-08-05T04:16:14.854Z,87.38
2022-08-05T04:18:47.582Z,87.21
2022-08-05T04:22:04.957Z,86.70
2022-08-05T04:24:05.147Z,86.73
2022-08-05T04:26:20.370Z,86.71
2022-08-05T04:28:51.236Z,86.63
2022-08-05T04:31:21.421Z,87.02
2022-08-05T04:34:17.569Z,86.94
2022-08-05T04:36:44.795Z,86.75
2022-08-05T04:38:54.473Z,87.05
2022-08-05T04:41:34.068Z,87.18
2022-08-05T04:43:56.430Z,87.44
2022-08-05T04:46:28.430Z,87.29
2022-08-05T04:48:58.685Z,87.63
2022-08-05T04:51:30.490Z,87.84
2022-08-05T04:54:01.315Z,88.08
2022-08-05T04:56:35.052Z,88.09
2022-08-05T04:59:24.261Z,88.10
2022-08-05T05:02:07.230Z,88.24
2022-08-05T05:04:04.705Z,88.21
2022-08-05T05:06:39.034Z,87.90
2022-08-05T05:09:05.591Z,87.45
2022-08-05T05:11:52.895Z,87.08
2022-08-05T05:14:06.738Z,86.81
2022-08-05T05:16:37.647Z,86.79
2022-08-05T05:19:19.157Z,86.47
2022-08-05T05:21:39.872Z,85.95
2022-08-05T05:24:09.455Z,85.76
2022-08-05T05:26:39.793Z,86.02
2022-08-05T05:29:14.240Z,86.23
2022-08-05T05:34:08.563Z,86.14
2022-08-05T05:36:37.883Z,86.01
2022-08-05T05:39:10.882Z,85.50
2022-08-05T05:41:40.896Z,85.06
2022-08-05T05:44:36.007Z,85.06
2022-08-05T05:46:41.624Z,84.88
2022-08-05T05:49:22.849Z,84.80
2022-08-05T05:51:50.298Z,83.94
2022-08-05T05:54:14.854Z,83.38
2022-08-05T05:56:45.953Z,82.77
2022-08-05T05:59:16.781Z,82.78
2022-08-05T06:01:57.750Z,82.39
2022-08-05T06:04:17.134Z,82.07
2022-08-05T06:06:48.806Z,81.87
2022-08-05T06:09:25.703Z,82.02
2022-08-05T06:11:59.589Z,81.89
2022-08-05T06:14:20.027Z,81.85
2022-08-05T06:16:49.411Z,81.62
2022-08-05T06:19:26.035Z,81.52
2022-08-05T06:21:50.048Z,81.06
2022-08-05T06:24:22.520Z,80.27
2022-08-05T06:26:53.263Z,79.23
2022-08-05T06:29:48.153Z,79.14
2022-08-05T06:31:55.146Z,79.64
2022-08-05T06:34:27.705Z,79.70
2022-08-05T06:36:58.855Z,78.87
2022-08-05T06:39:28.409Z,78.84
2022-08-05T06:42:01.418Z,79.14
2022-08-05T06:44:32.838Z,78.26
2022-08-05T06:47:02.505Z,78.18
2022-08-05T06:50:01.664Z,77.41
2022-08-05T06:52:03.553Z,76.31
2022-08-05T06:54:32.858Z,76.30
2022-08-05T06:57:58.179Z,76.44
2022-08-05T06:59:38.862Z,75.72
2022-08-05T07:02:05.838Z,74.20
2022-08-05T07:04:35.146Z,73.74
2022-08-05T07:07:07.894Z,73.92
2022-08-05T07:09:37.485Z,71.95
2022-08-05T07:12:08.511Z,71.97
2022-08-05T07:14:55.691Z,72.28
2022-08-05T07:18:00.894Z,73.34
2022-08-05T07:22:30.024Z,72.20
2022-08-05T07:25:22.065Z,70.89
2022-08-05T07:27:56.686Z,71.25
2022-08-05T07:30:27.213Z,70.90
2022-08-05T07:32:39.298Z,71.35
2022-08-05T07:36:01.939Z,72.12
2022-08-05T07:37:41.617Z,72.19
2022-08-05T07:40:31.393Z,72.50
2022-08-05T07:42:44.040Z,70.20
2022-08-05T07:45:13.455Z,68.86
2022-08-05T07:47:44.464Z,67.46
2022-08-05T07:50:16.674Z,66.78
2022-08-05T07:52:46.721Z,66.89
2022-08-05T07:56:05.589Z,67.59
2022-08-05T07:58:00.447Z,67.90
2022-08-05T08:00:19.097Z,67.93
2022-08-05T08:03:13.998Z,67.42
2022-08-05T08:05:19.312Z,66.98
2022-08-05T08:07:59.508Z,67.40
2022-08-05T08:10:20.498Z,65.57
2022-08-05T08:12:50.784Z,65.33
2022-08-05T08:16:33.988Z,61.70
2022-08-05T08:17:52.985Z,61.53
2022-08-05T08:21:00.495Z,62.33
2022-08-05T08:22:56.503Z,60.04
2022-08-05T08:25:58.933Z,60.96
2022-08-05T08:27:58.706Z,58.61
2022-08-05T08:30:37.692Z,59.41
2022-08-05T08:33:04.546Z,57.28
2022-08-05T08:35:35.070Z,58.62
2022-08-05T08:38:02.152Z,53.86
2022-08-05T08:40:34.283Z,54.65
2022-08-05T08:45:21.001Z,55.79
2022-08-05T08:45:37.513Z,55.35
2022-08-05T08:48:22.679Z,51.85
2022-08-05T08:51:03.084Z,53.28
2022-08-05T08:53:13.194Z,53.38
2022-08-05T08:56:03.866Z,52.79
2022-08-05T08:58:16.847Z,52.78
2022-08-05T09:00:46.809Z,51.33
2022-08-05T09:03:19.171Z,53.03
2022-08-05T09:06:09.169Z,52.29
2022-08-05T09:08:20.717Z,52.61
2022-08-05T09:10:52.832Z,52.70
2022-08-05T09:13:23.594Z,54.32
2022-08-05T09:15:53.311Z,53.91
2022-08-05T09:18:24.563Z,52.14
2022-08-05T09:20:53.956Z,50.27
2022-08-05T09:23:27.240Z,50.92
2022-08-05T09:26:20.527Z,51.20
2022-08-05T09:28:45.960Z,50.60
2022-08-05T09:31:23.245Z,50.65
2022-08-05T09:33:50.907Z,50.23
2022-08-05T09:36:20.635Z,48.70
2022-08-05T09:39:00.623Z,50.58
2022-08-05T09:41:32.750Z,48.62
2022-08-05T09:44:03.847Z,48.71
2022-08-05T09:46:35.288Z,48.93
2022-08-05T09:49:18.763Z,49.53
2022-08-05T09:51:42.283Z,50.78
2022-08-05T09:54:12.035Z,52.55
2022-08-05T09:56:52.446Z,54.84
2022-08-05T09:59:17.594Z,55.51
2022-08-05T10:01:47.423Z,54.83
2022-08-05T10:04:17.539Z,54.21
2022-08-05T10:06:59.435Z,54.89
2022-08-05T10:09:30.144Z,53.84
2022-08-05T10:12:18.781Z,53.25
2022-08-05T10:14:42.516Z,55.71
2022-08-05T10:17:37.311Z,56.08
2022-08-05T10:20:03.739Z,56.36
2022-08-05T10:22:29.885Z,57.64
2022-08-05T10:24:50.637Z,56.61
2022-08-05T10:27:26.283Z,56.80
2022-08-05T10:30:41.080Z,58.31
2022-08-05T10:32:53.221Z,54.57
2022-08-05T10:34:55.257Z,56.11
2022-08-05T10:37:26.632Z,56.01
2022-08-05T10:40:03.375Z,55.40
2022-08-05T10:42:33.455Z,57.26
2022-08-05T10:45:00.279Z,56.59
2022-08-05T10:47:36.246Z,57.55
2022-08-05T10:50:32.977Z,55.45
2022-08-05T10:52:58.546Z,58.93
2022-08-05T10:55:26.005Z,60.10
2022-08-05T10:58:09.683Z,55.82
2022-08-05T11:00:44.099Z,55.29
2022-08-05T11:03:25.259Z,53.61
2022-08-05T11:05:50.227Z,52.54
2022-08-05T11:08:36.771Z,50.67
2022-08-05T11:11:01.031Z,52.50
2022-08-05T11:13:57.747Z,53.94
2022-08-05T11:16:33.920Z,52.51
2022-08-05T11:20:16.436Z,51.84
2022-08-05T11:22:22.607Z,49.89
2022-08-05T11:25:16.490Z,43.26
2022-08-05T11:27:50.167Z,43.63
2022-08-05T11:30:04.188Z,41.74
2022-08-05T11:32:35.070Z,44.99
2022-08-05T11:35:05.446Z,39.91
2022-08-05T11:38:37.005Z,38.02
2022-08-05T11:40:47.033Z,36.38
2022-08-05T11:44:06.061Z,36.08
2022-08-05T11:46:27.387Z,36.41
2022-08-05T11:48:25.765Z,34.85
2022-08-05T11:50:55.292Z,35.51
2022-08-05T11:53:24.730Z,36.38
2022-08-05T11:55:55.506Z,32.96
2022-08-05T11:58:40.516Z,31.90
2022-08-05T12:01:12.331Z,31.67
2022-08-05T12:03:55.482Z,31.78
2022-08-05T12:06:29.310Z,32.47
2022-08-05T12:09:00.194Z,32.30
2022-08-05T12:11:39.911Z,30.99
2022-08-05T12:14:04.607Z,30.86
2022-08-05T12:16:37.409Z,31.22
2022-08-05T12:20:27.272Z,28.09
2022-08-05T12:21:48.596Z,28.79
2022-08-05T12:24:22.479Z,28.65
2022-08-05T12:26:54.635Z,28.29
2022-08-05T12:29:29.167Z,32.03
2022-08-05T12:32:02.027Z,30.41
2022-08-05T12:34:35.740Z,31.96
2022-08-05T12:37:09.974Z,30.25
2022-08-05T12:39:41.055Z,29.17
2022-08-05T12:42:16.256Z,29.06
2022-08-05T12:44:47.531Z,29.33
2022-08-05T12:47:31.115Z,29.02
2022-08-05T12:50:03.594Z,27.48
2022-08-05T12:52:39.760Z,30.39
2022-08-05T12:55:03.551Z,30.27
2022-08-05T12:58:38.893Z,31.79
2022-08-05T13:02:00.105Z,30.30
2022-08-05T13:02:43.342Z,31.28
2022-08-05T13:05:15.045Z,31.50
2022-08-05T13:08:01.246Z,31.61
2022-08-05T13:10:19.580Z,30.89
2022-08-05T13:12:51.178Z,30.05
2022-08-05T13:15:24.326Z,30.45
2022-08-05T13:17:56.265Z,32.16
2022-08-05T13:20:35.228Z,38.29
2022-08-05T13:23:07.297Z,38.89
2022-08-05T13:25:52.486Z,40.43
2022-08-05T13:28:07.881Z,38.62
2022-08-05T13:30:39.341Z,40.85
2022-08-05T13:33:08.654Z,42.08
2022-08-05T13:35:47.229Z,40.06
2022-08-05T13:38:08.889Z,41.25
2022-08-05T13:40:49.955Z,42.83
2022-08-05T13:43:12.119Z,43.94
2022-08-05T13:45:43.178Z,42.43
2022-08-05T13:49:00.202Z,40.64
2022-08-05T13:50:43.773Z,37.08
2022-08-05T13:53:15.924Z,37.08
2022-08-05T13:55:49.270Z,37.22
2022-08-05T13:58:30.983Z,38.15
2022-08-05T14:00:47.129Z,41.06
2022-08-05T14:03:16.869Z,39.87
2022-08-05T14:06:24.347Z,39.87
2022-08-05T14:08:20.800Z,42.07
2022-08-05T14:10:48.997Z,41.80
2022-08-05T14:13:18.261Z,42.80
2022-08-05T14:16:06.927Z,43.20
2022-08-05T14:18:23.381Z,44.20
2022-08-05T14:20:52.923Z,44.72
2022-08-05T14:23:25.470Z,43.52
2022-08-05T14:25:54.499Z,45.28
2022-08-05T14:28:27.119Z,44.54
2022-08-05T14:31:01.525Z,44.56
2022-08-05T14:33:59.646Z,45.20
2022-08-05T14:36:05.293Z,45.52
2022-08-05T14:38:36.253Z,46.08
2022-08-05T14:41:08.329Z,46.31
2022-08-05T14:43:59.107Z,46.56
2022-08-05T14:46:09.151Z,46.42
2022-08-05T14:48:38.466Z,46.51
2022-08-05T14:51:08.398Z,44.82
2022-08-05T14:53:44.278Z,45.09
2022-08-05T14:56:09.120Z,47.24
2022-08-05T14:58:47.494Z,47.64
2022-08-05T15:01:15.998Z,49.70
2022-08-05T15:03:42.669Z,51.85
2022-08-05T15:06:15.751Z,51.30
2022-08-05T15:08:57.990Z,52.55
2022-08-05T15:11:17.135Z,54.18
2022-08-05T15:13:50.291Z,53.54
2022-08-05T15:16:17.436Z,53.08
2022-08-05T15:18:47.181Z,52.80
2022-08-05T15:21:20.953Z,52.78
2022-08-05T15:23:47.599Z,52.79
2022-08-05T15:26:32.081Z,53.83
2022-08-05T15:28:48.682Z,53.63
2022-08-05T15:31:19.655Z,54.86
2022-08-05T15:34:04.355Z,54.88
2022-08-05T15:36:24.153Z,54.04
2022-08-05T15:40:58.661Z,52.83
2022-08-05T15:41:26.010Z,53.12
2022-08-05T15:43:57.184Z,52.93
2022-08-05T15:46:26.663Z,53.75
2022-08-05T15:48:58.827Z,53.72
2022-08-05T15:52:04.510Z,53.60
2022-08-05T15:53:59.380Z,55.29
2022-08-05T15:56:30.602Z,55.49
2022-08-05T15:59:00.287Z,56.30
2022-08-05T16:01:29.738Z,56.78
2022-08-05T16:04:00.663Z,56.36
2022-08-05T16:06:29.925Z,57.05
2022-08-05T16:08:59.525Z,56.63
2022-08-05T16:11:43.167Z,55.68
2022-08-05T16:14:00.097Z,55.27
2022-08-05T16:16:30.088Z,54.69
2022-08-05T16:18:59.718Z,54.50
2022-08-05T16:21:58.877Z,55.00
2022-08-05T16:24:03.698Z,54.83
2022-08-05T16:26:31.765Z,55.48
2022-08-05T16:29:01.542Z,54.35
2022-08-05T16:31:56.416Z,54.41
2022-08-05T16:34:01.844Z,53.45
2022-08-05T16:36:31.727Z,54.52
2022-08-05T16:39:02.077Z,53.93
2022-08-05T16:42:14.415Z,53.54
2022-08-05T16:44:02.427Z,52.68
2022-08-05T16:46:31.818Z,53.27
2022-08-05T16:49:01.524Z,53.75
2022-08-05T16:51:42.692Z,54.50
2022-08-05T16:54:16.060Z,55.09
2022-08-05T16:56:34.671Z,54.71
2022-08-05T16:59:09.122Z,55.22
2022-08-05T17:01:52.967Z,55.08
2022-08-05T17:04:10.226Z,52.42
2022-08-05T17:06:41.972Z,51.80
2022-08-05T17:09:10.684Z,53.53
2022-08-05T17:11:49.002Z,51.92
2022-08-05T17:14:12.981Z,50.35
2022-08-05T17:16:42.454Z,50.40
2022-08-05T17:19:11.701Z,49.72
2022-08-05T17:21:41.121Z,49.68
2022-08-05T17:24:30.312Z,49.42
2022-08-05T17:26:43.072Z,50.55
2022-08-05T17:29:12.472Z,50.68
2022-08-05T17:31:58.328Z,51.98
2022-08-05T17:34:18.065Z,51.64
2022-08-05T17:36:44.659Z,52.49
2022-08-05T17:39:24.242Z,52.73
2022-08-05T17:42:20.372Z,52.45
2022-08-05T17:44:16.591Z,53.10
2022-08-05T17:46:45.879Z,53.38
2022-08-05T17:49:15.960Z,53.46
2022-08-05T17:51:45.961Z,54.83
2022-08-05T17:54:17.179Z,55.68
2022-08-05T17:56:49.142Z,54.76
2022-08-05T17:59:20.844Z,54.17
2022-08-05T18:01:50.645Z,53.90
2022-08-05T18:04:21.489Z,54.78
2022-08-05T18:06:51.100Z,56.05
2022-08-05T18:09:22.296Z,57.12
2022-08-05T18:11:53.441Z,58.19
2022-08-05T18:14:22.698Z,57.77
2022-08-05T18:16:53.390Z,57.58
2022-08-05T18:19:25.936Z,57.30
2022-08-05T18:22:08.567Z,57.47
2022-08-05T18:24:24.973Z,57.20
2022-08-05T18:26:55.929Z,56.89
2022-08-05T18:29:40.331Z,57.35
2022-08-05T18:31:57.978Z,57.40
2022-08-05T18:34:39.683Z,58.09
2022-08-05T18:36:58.206Z,58.45
2022-08-05T18:40:29.397Z,58.10
2022-08-05T18:42:05.053Z,58.33
2022-08-05T18:44:34.810Z,58.86
2022-08-05T18:47:01.552Z,59.41
2022-08-05T18:49:58.238Z,60.08
2022-08-05T18:52:39.511Z,60.56
2022-08-05T18:55:10.978Z,60.37
2022-08-05T18:57:50.037Z,60.91
2022-08-05T19:00:20.094Z,60.69
2022-08-05T19:02:44.330Z,59.71
2022-08-05T19:06:06.103Z,59.36
2022-08-05T19:07:48.260Z,59.74
2022-08-05T19:10:26.513Z,59.52
2022-08-05T19:12:50.936Z,59.60
2022-08-05T19:15:57.103Z,59.48
2022-08-05T19:18:08.532Z,59.62
2022-08-05T19:20:22.115Z,59.49
2022-08-05T19:22:53.564Z,59.52
2022-08-05T19:25:29.801Z,60.13
2022-08-05T19:27:54.285Z,60.75
2022-08-05T19:30:23.806Z,61.27
2022-08-05T19:32:53.186Z,61.27
2022-08-05T19:35:22.770Z,61.65
2022-08-05T19:38:05.974Z,62.07
2022-08-05T19:40:24.362Z,62.36
2022-08-05T19:43:04.914Z,62.18
2022-08-05T19:45:25.645Z,62.49
2022-08-05T19:47:55.831Z,62.26
2022-08-05T19:50:25.244Z,62.74
2022-08-05T19:52:54.548Z,63.09
2022-08-05T19:56:14.124Z,63.47
2022-08-05T19:58:07.117Z,63.16
2022-08-05T20:00:25.906Z,63.53
2022-08-05T20:02:55.172Z,63.22
2022-08-05T20:05:25.910Z,63.32
2022-08-05T20:07:59.128Z,63.45
2022-08-05T20:10:27.837Z,63.82
2022-08-05T20:12:58.332Z,64.29
2022-08-05T20:15:52.597Z,64.40
2022-08-05T20:18:04.196Z,64.74
2022-08-05T20:20:35.079Z,65.38
2022-08-05T20:23:04.486Z,65.85
2022-08-05T20:25:39.840Z,66.35
2022-08-05T20:28:13.835Z,66.39
2022-08-05T20:30:39.548Z,66.81
2022-08-05T20:33:10.516Z,67.29
2022-08-05T20:35:40.687Z,67.38
2022-08-05T20:38:10.868Z,67.74
2022-08-05T20:40:43.312Z,68.05
2022-08-05T20:43:12.584Z,68.43
2022-08-05T20:45:56.448Z,69.21
2022-08-05T20:48:16.623Z,69.76
2022-08-05T20:50:45.232Z,70.08
2022-08-05T20:53:36.961Z,69.99
2022-08-05T20:56:07.205Z,69.68
2022-08-05T20:58:17.907Z,69.42
2022-08-05T21:00:54.629Z,69.37
2022-08-05T21:03:20.991Z,69.78
2022-08-05T21:05:54.545Z,70.02
2022-08-05T21:08:21.287Z,70.29
2022-08-05T21:10:52.546Z,70.22
2022-08-05T21:13:48.411Z,70.57
2022-08-05T21:15:54.511Z,70.87
2022-08-05T21:18:24.885Z,70.78
2022-08-05T21:20:55.657Z,70.83
2022-08-05T21:23:25.069Z,70.75
2022-08-05T21:25:55.379Z,71.20
2022-08-05T21:28:30.611Z,71.03
2022-08-05T21:30:55.777Z,70.81
2022-08-05T21:33:26.224Z,70.90
2022-08-05T21:35:58.938Z,70.95
2022-08-05T21:38:28.890Z,70.86
2022-08-05T21:40:58.305Z,70.83
2022-08-05T21:43:27.595Z,71.15
2022-08-05T21:46:00.582Z,71.58
2022-08-05T21:48:31.855Z,71.92
2022-08-05T21:51:01.285Z,72.62
2022-08-05T21:53:30.555Z,73.26
2022-08-05T21:56:06.565Z,73.54
2022-08-05T21:58:34.512Z,73.38
2022-08-05T22:01:06.146Z,73.40
2022-08-05T22:03:52.630Z,73.43
2022-08-05T22:06:08.273Z,73.27
2022-08-05T22:08:37.657Z,73.26
2022-08-05T22:11:09.076Z,73.28
2022-08-05T22:14:05.944Z,73.69
2022-08-05T22:16:40.448Z,73.71
2022-08-05T22:18:42.723Z,73.91
2022-08-05T22:21:18.951Z,74.44
2022-08-05T22:24:12.895Z,74.65
2022-08-05T22:26:51.808Z,75.47
2022-08-05T22:29:26.244Z,75.62
2022-08-05T22:31:55.231Z,75.63
2022-08-05T22:34:28.326Z,76.21
2022-08-05T22:36:54.432Z,76.39
2022-08-05T22:39:23.857Z,76.35
2022-08-05T22:42:10.472Z,76.48
2022-08-05T22:44:24.120Z,77.09
2022-08-05T22:46:54.646Z,77.21
2022-08-05T22:50:19.553Z,77.47
2022-08-05T22:52:05.105Z,78.03
2022-08-05T22:54:26.676Z,78.77
2022-08-05T22:56:57.217Z,79.20
2022-08-05T22:59:42.584Z,79.43
2022-08-05T23:02:05.478Z,78.87
2022-08-05T23:04:28.611Z,78.50
2022-08-05T23:06:57.978Z,78.30
2022-08-05T23:09:57.095Z,78.21
2022-08-05T23:11:58.655Z,78.27
2022-08-05T23:14:32.240Z,78.71
2022-08-05T23:17:18.694Z,78.86
2022-08-05T23:19:51.159Z,78.86
2022-08-05T23:22:27.150Z,78.74
2022-08-05T23:24:53.240Z,78.90
2022-08-05T23:27:22.876Z,79.10
2022-08-05T23:29:54.084Z,79.21
2022-08-05T23:32:24.371Z,79.57
2022-08-05T23:34:56.050Z,79.69
2022-08-05T23:37:26.608Z,79.61
2022-08-05T23:39:56.688Z,79.47
2022-08-05T23:42:29.334Z,80.12
2022-08-05T23:44:57.755Z,80.62
2022-08-05T23:47:26.987Z,80.66
2022-08-05T23:49:56.563Z,81.04
2022-08-05T23:52:36.024Z,81.15
2022-08-05T23:55:08.992Z,81.12
2022-08-05T23:57:38.591Z,81.14
